sensor_id;sensor_type;location;lat;lon;timestamp;P1;durP1;ratioP1;P2;durP2;ratioP2
15498;SDS011;7851;52.260;6.030;2022-10-28T00:03:01;10.7;;;8.7;;
15498;SDS011;7851;52.260;6.030;2022-10-28T00:03:01;9;;;8;;
15498;SDS011;7851;52.260;6.030;2022-10-28T00:03:01;13.4;;;8.3;;
15498;SDS011;7851;52.260;6.030;2022-10-28T00:03:43;11.4;;;8;;
15498;SDS011;7851;52.260;6.030;2022-10-28T00:04:42;13.3;;;9;;
15498;SDS011;7851;52.260;6.030;2022-10-28T00:05:42;9.7;;;8.7;;
15498;SDS011;7851;52.260;6.030;2022-10-28T00:06:42;15.3;;;8.8;;
15498;SDS011;7851;52.260;6.030;2022-10-28T00:07:42;10.2;;;8.6;;
15498;SDS011;7851;52.260;6.030;2022-10-28T00:08:42;20.2;;;9.5;;
15498;SDS011;7851;52.260;6.030;2022-10-28T00:09:42;11;;;9.1;;
15498;SDS011;7851;52.260;6.030;2022-10-28T00:10:42;13.4;;;9.9;;
15498;SDS011;7851;52.260;6.030;2022-10-28T00:11:42;14.2;;;9.1;;
15498;SDS011;7851;52.260;6.030;2022-10-28T00:12:42;16.4;;;9.1;;
15498;SDS011;7851;52.260;6.030;2022-10-28T00:13:42;10.2;;;9.1;;
15498;SDS011;7851;52.260;6.030;2022-10-28T00:14:42;11.7;;;9.4;;
15498;SDS011;7851;52.260;6.030;2022-10-28T00:15:42;11.4;;;9.3;;
15498;SDS011;7851;52.260;6.030;2022-10-28T00:16:42;10.8;;;8.8;;
15498;SDS011;7851;52.260;6.030;2022-10-28T00:17:42;10.7;;;9.6;;
15498;SDS011;7851;52.260;6.030;2022-10-28T00:18:42;11.7;;;9.4;;
15498;SDS011;7851;52.260;6.030;2022-10-28T00:19:42;12.9;;;9.6;;
15498;SDS011;7851;52.260;6.030;2022-10-28T00:20:42;16.6;;;9.9;;
15498;SDS011;7851;52.260;6.030;2022-10-28T00:21:42;11.9;;;9.3;;
15498;SDS011;7851;52.260;6.030;2022-10-28T00:22:42;11.6;;;9;;
15498;SDS011;7851;52.260;6.030;2022-10-28T00:23:42;16.2;;;10.4;;
15498;SDS011;7851;52.260;6.030;2022-10-28T00:24:42;13.1;;;8.4;;
15498;SDS011;7851;52.260;6.030;2022-10-28T00:25:42;12.3;;;9.5;;
15498;SDS011;7851;52.260;6.030;2022-10-28T00:26:42;12;;;9.5;;
15498;SDS011;7851;52.260;6.030;2022-10-28T00:27:42;14.9;;;9.5;;
15498;SDS011;7851;52.260;6.030;2022-10-28T00:28:43;15.2;;;9.4;;
15498;SDS011;7851;52.260;6.030;2022-10-28T00:29:42;11;;;9.1;;
15498;SDS011;7851;52.260;6.030;2022-10-28T00:30:42;12.8;;;9.8;;
15498;SDS011;7851;52.260;6.030;2022-10-28T00:31:42;14.4;;;9.5;;
15498;SDS011;7851;52.260;6.030;2022-10-28T00:32:42;10.5;;;9.4;;
15498;SDS011;7851;52.260;6.030;2022-10-28T00:33:42;11;;;9.5;;
15498;SDS011;7851;52.260;6.030;2022-10-28T00:34:42;11.9;;;9.1;;
15498;SDS011;7851;52.260;6.030;2022-10-28T00:35:42;14.8;;;9.1;;
15498;SDS011;7851;52.260;6.030;2022-10-28T00:36:43;9.9;;;8.8;;
15498;SDS011;7851;52.260;6.030;2022-10-28T00:37:42;12.1;;;10;;
15498;SDS011;7851;52.260;6.030;2022-10-28T00:38:43;15.3;;;9.7;;
15498;SDS011;7851;52.260;6.030;2022-10-28T00:39:42;11.5;;;10.3;;
15498;SDS011;7851;52.260;6.030;2022-10-28T00:40:42;10.3;;;9.3;;
15498;SDS011;7851;52.260;6.030;2022-10-28T00:41:43;12.2;;;9;;
15498;SDS011;7851;52.260;6.030;2022-10-28T00:42:42;14;;;9.3;;
15498;SDS011;7851;52.260;6.030;2022-10-28T00:43:43;14.5;;;10.1;;
15498;SDS011;7851;52.260;6.030;2022-10-28T00:44:47;14.2;;;10.8;;
15498;SDS011;7851;52.260;6.030;2022-10-28T00:45:42;12.9;;;10.1;;
15498;SDS011;7851;52.260;6.030;2022-10-28T00:46:43;15.9;;;9.9;;
15498;SDS011;7851;52.260;6.030;2022-10-28T00:47:43;14.1;;;10.8;;
15498;SDS011;7851;52.260;6.030;2022-10-28T00:48:42;14.8;;;10.7;;
15498;SDS011;7851;52.260;6.030;2022-10-28T00:49:42;12.4;;;9.4;;
15498;SDS011;7851;52.260;6.030;2022-10-28T00:50:42;14.7;;;10.4;;
15498;SDS011;7851;52.260;6.030;2022-10-28T00:51:42;17.1;;;10.3;;
15498;SDS011;7851;52.260;6.030;2022-10-28T00:52:42;12.7;;;10;;
15498;SDS011;7851;52.260;6.030;2022-10-28T00:53:42;13.2;;;11.8;;
15498;SDS011;7851;52.260;6.030;2022-10-28T00:54:42;14.4;;;11;;
15498;SDS011;7851;52.260;6.030;2022-10-28T00:55:42;14.3;;;10.9;;
15498;SDS011;7851;52.260;6.030;2022-10-28T00:56:43;13.5;;;10.5;;
15498;SDS011;7851;52.260;6.030;2022-10-28T00:57:42;14;;;10.3;;
15498;SDS011;7851;52.260;6.030;2022-10-28T00:58:42;13;;;10.7;;
15498;SDS011;7851;52.260;6.030;2022-10-28T00:59:42;13.3;;;10.5;;
15498;SDS011;7851;52.260;6.030;2022-10-28T01:00:42;14.3;;;10.8;;
15498;SDS011;7851;52.260;6.030;2022-10-28T01:01:42;16.2;;;10.8;;
15498;SDS011;7851;52.260;6.030;2022-10-28T01:02:43;15.5;;;11;;
15498;SDS011;7851;52.260;6.030;2022-10-28T01:03:42;13.5;;;10.8;;
15498;SDS011;7851;52.260;6.030;2022-10-28T01:04:42;14.6;;;10.9;;
15498;SDS011;7851;52.260;6.030;2022-10-28T01:05:43;13.9;;;11;;
15498;SDS011;7851;52.260;6.030;2022-10-28T01:06:42;17.9;;;10.9;;
15498;SDS011;7851;52.260;6.030;2022-10-28T01:07:42;12.2;;;10.9;;
15498;SDS011;7851;52.260;6.030;2022-10-28T01:08:42;15.6;;;11.3;;
15498;SDS011;7851;52.260;6.030;2022-10-28T01:09:42;13.1;;;11.4;;
15498;SDS011;7851;52.260;6.030;2022-10-28T01:10:47;13.2;;;11;;
15498;SDS011;7851;52.260;6.030;2022-10-28T01:11:44;14.6;;;11.5;;
15498;SDS011;7851;52.260;6.030;2022-10-28T01:12:46;16.3;;;11.2;;
15498;SDS011;7851;52.260;6.030;2022-10-28T01:13:45;12.4;;;10.2;;
15498;SDS011;7851;52.260;6.030;2022-10-28T01:14:59;9.6;;;8.6;;
15498;SDS011;7851;52.260;6.030;2022-10-28T01:15:58;15.9;;;11.4;;
15498;SDS011;7851;52.260;6.030;2022-10-28T01:17:00;13;;;11.6;;
15498;SDS011;7851;52.260;6.030;2022-10-28T01:17:58;15.9;;;11.3;;
15498;SDS011;7851;52.260;6.030;2022-10-28T01:18:59;14.5;;;12;;
15498;SDS011;7851;52.260;6.030;2022-10-28T01:20:05;13.9;;;12;;
15498;SDS011;7851;52.260;6.030;2022-10-28T01:21:03;12.7;;;11.4;;
15498;SDS011;7851;52.260;6.030;2022-10-28T01:22:00;16;;;12.1;;
15498;SDS011;7851;52.260;6.030;2022-10-28T01:22:58;13.7;;;12.2;;
15498;SDS011;7851;52.260;6.030;2022-10-28T01:24:02;19.7;;;11.7;;
15498;SDS011;7851;52.260;6.030;2022-10-28T01:25:03;15.5;;;11.9;;
15498;SDS011;7851;52.260;6.030;2022-10-28T01:26:10;16.3;;;10.8;;
15498;SDS011;7851;52.260;6.030;2022-10-28T01:27:04;16.5;;;11.9;;
15498;SDS011;7851;52.260;6.030;2022-10-28T01:28:02;17.2;;;12.6;;
15498;SDS011;7851;52.260;6.030;2022-10-28T01:29:01;15.2;;;12.3;;
15498;SDS011;7851;52.260;6.030;2022-10-28T01:30:06;17.2;;;11.8;;
15498;SDS011;7851;52.260;6.030;2022-10-28T01:31:01;17.9;;;13.1;;
15498;SDS011;7851;52.260;6.030;2022-10-28T01:31:58;16.5;;;11.9;;
15498;SDS011;7851;52.260;6.030;2022-10-28T01:32:59;15.9;;;12.3;;
15498;SDS011;7851;52.260;6.030;2022-10-28T01:33:59;15.1;;;12.3;;
15498;SDS011;7851;52.260;6.030;2022-10-28T01:34:59;19.6;;;11.8;;
15498;SDS011;7851;52.260;6.030;2022-10-28T01:35:58;18.8;;;11.8;;
15498;SDS011;7851;52.260;6.030;2022-10-28T01:36:58;13.7;;;12.4;;
15498;SDS011;7851;52.260;6.030;2022-10-28T01:38:05;18.2;;;12.4;;
15498;SDS011;7851;52.260;6.030;2022-10-28T01:39:00;14.2;;;11.8;;
15498;SDS011;7851;52.260;6.030;2022-10-28T01:39:59;19.8;;;12.9;;
15498;SDS011;7851;52.260;6.030;2022-10-28T01:40:58;15.8;;;11.7;;
15498;SDS011;7851;52.260;6.030;2022-10-28T01:41:58;16.3;;;12.1;;
15498;SDS011;7851;52.260;6.030;2022-10-28T01:42:59;14.6;;;11.7;;
15498;SDS011;7851;52.260;6.030;2022-10-28T01:43:58;15.8;;;11.8;;
15498;SDS011;7851;52.260;6.030;2022-10-28T01:44:59;15.6;;;11.9;;
15498;SDS011;7851;52.260;6.030;2022-10-28T01:45:58;16.6;;;12.4;;
15498;SDS011;7851;52.260;6.030;2022-10-28T01:46:59;14.3;;;11.8;;
15498;SDS011;7851;52.260;6.030;2022-10-28T01:47:58;15.5;;;12.6;;
15498;SDS011;7851;52.260;6.030;2022-10-28T01:48:57;14.1;;;12.7;;
15498;SDS011;7851;52.260;6.030;2022-10-28T01:49:58;16;;;12.3;;
15498;SDS011;7851;52.260;6.030;2022-10-28T01:50:58;16.1;;;13.1;;
15498;SDS011;7851;52.260;6.030;2022-10-28T01:51:57;15.5;;;13.2;;
15498;SDS011;7851;52.260;6.030;2022-10-28T01:52:59;15.6;;;12.4;;
15498;SDS011;7851;52.260;6.030;2022-10-28T01:53:58;17.8;;;13.2;;
15498;SDS011;7851;52.260;6.030;2022-10-28T01:54:58;18.2;;;12.6;;
15498;SDS011;7851;52.260;6.030;2022-10-28T01:55:58;20.5;;;13.3;;
15498;SDS011;7851;52.260;6.030;2022-10-28T01:56:57;14;;;12.4;;
15498;SDS011;7851;52.260;6.030;2022-10-28T01:57:57;17.7;;;13.7;;
15498;SDS011;7851;52.260;6.030;2022-10-28T01:58:58;18.7;;;13.7;;
15498;SDS011;7851;52.260;6.030;2022-10-28T01:59:57;16;;;13.3;;
15498;SDS011;7851;52.260;6.030;2022-10-28T02:00:58;15.4;;;13.4;;
15498;SDS011;7851;52.260;6.030;2022-10-28T02:01:57;15.9;;;13.4;;
15498;SDS011;7851;52.260;6.030;2022-10-28T02:02:57;17.2;;;13.2;;
15498;SDS011;7851;52.260;6.030;2022-10-28T02:03:57;16.9;;;13.3;;
15498;SDS011;7851;52.260;6.030;2022-10-28T02:05:02;17.7;;;12.8;;
15498;SDS011;7851;52.260;6.030;2022-10-28T02:05:57;16.3;;;13.8;;
15498;SDS011;7851;52.260;6.030;2022-10-28T02:06:58;14.9;;;13.2;;
15498;SDS011;7851;52.260;6.030;2022-10-28T02:07:58;16.5;;;13;;
15498;SDS011;7851;52.260;6.030;2022-10-28T02:09:02;18.2;;;13.2;;
15498;SDS011;7851;52.260;6.030;2022-10-28T02:10:00;16.4;;;12.2;;
15498;SDS011;7851;52.260;6.030;2022-10-28T02:11:00;17.1;;;13.2;;
15498;SDS011;7851;52.260;6.030;2022-10-28T02:12:57;17;;;12.9;;
15498;SDS011;7851;52.260;6.030;2022-10-28T02:13:58;17.8;;;13.6;;
15498;SDS011;7851;52.260;6.030;2022-10-28T02:15:03;16.7;;;13.7;;
15498;SDS011;7851;52.260;6.030;2022-10-28T02:15:58;15.8;;;13.2;;
15498;SDS011;7851;52.260;6.030;2022-10-28T02:16:59;15.4;;;13;;
15498;SDS011;7851;52.260;6.030;2022-10-28T02:18:10;15.3;;;13.1;;
15498;SDS011;7851;52.260;6.030;2022-10-28T02:18:59;16.6;;;12.8;;
15498;SDS011;7851;52.260;6.030;2022-10-28T02:19:59;23;;;13.2;;
15498;SDS011;7851;52.260;6.030;2022-10-28T02:20:57;17.5;;;13.7;;
15498;SDS011;7851;52.260;6.030;2022-10-28T02:22:00;17.8;;;12.9;;
15498;SDS011;7851;52.260;6.030;2022-10-28T02:22:59;19.9;;;14.2;;
15498;SDS011;7851;52.260;6.030;2022-10-28T02:23:58;16.1;;;13.6;;
15498;SDS011;7851;52.260;6.030;2022-10-28T02:24:59;18.9;;;13.8;;
15498;SDS011;7851;52.260;6.030;2022-10-28T02:25:58;15.8;;;14;;
15498;SDS011;7851;52.260;6.030;2022-10-28T02:26:59;16.8;;;13.5;;
15498;SDS011;7851;52.260;6.030;2022-10-28T02:27:58;18.6;;;13.9;;
15498;SDS011;7851;52.260;6.030;2022-10-28T02:28:58;17.7;;;13.9;;
15498;SDS011;7851;52.260;6.030;2022-10-28T02:29:59;18.6;;;14;;
15498;SDS011;7851;52.260;6.030;2022-10-28T02:30:59;17;;;13.8;;
15498;SDS011;7851;52.260;6.030;2022-10-28T02:31:58;15.3;;;13.7;;
15498;SDS011;7851;52.260;6.030;2022-10-28T02:32:58;17.2;;;13.8;;
15498;SDS011;7851;52.260;6.030;2022-10-28T02:33:58;18.4;;;14.3;;
15498;SDS011;7851;52.260;6.030;2022-10-28T02:34:58;16.8;;;14.2;;
15498;SDS011;7851;52.260;6.030;2022-10-28T02:35:59;18.7;;;13.8;;
15498;SDS011;7851;52.260;6.030;2022-10-28T02:36:58;17.1;;;13.9;;
15498;SDS011;7851;52.260;6.030;2022-10-28T02:37:57;17.2;;;13.6;;
15498;SDS011;7851;52.260;6.030;2022-10-28T02:38:57;22.4;;;14.7;;
15498;SDS011;7851;52.260;6.030;2022-10-28T02:39:58;18.1;;;14.7;;
15498;SDS011;7851;52.260;6.030;2022-10-28T02:40:58;20.8;;;14.4;;
15498;SDS011;7851;52.260;6.030;2022-10-28T02:41:57;17.7;;;14;;
15498;SDS011;7851;52.260;6.030;2022-10-28T02:42:58;23.5;;;15.6;;
15498;SDS011;7851;52.260;6.030;2022-10-28T02:43:58;22.5;;;14.6;;
15498;SDS011;7851;52.260;6.030;2022-10-28T02:44:58;16.4;;;13.9;;
15498;SDS011;7851;52.260;6.030;2022-10-28T02:45:58;19.7;;;14.4;;
15498;SDS011;7851;52.260;6.030;2022-10-28T02:46:58;21.7;;;14.4;;
15498;SDS011;7851;52.260;6.030;2022-10-28T02:47:57;19.3;;;14;;
15498;SDS011;7851;52.260;6.030;2022-10-28T02:48:58;16;;;14.4;;
15498;SDS011;7851;52.260;6.030;2022-10-28T02:49:58;18;;;14.3;;
15498;SDS011;7851;52.260;6.030;2022-10-28T02:50:59;16.8;;;14.8;;
15498;SDS011;7851;52.260;6.030;2022-10-28T02:51:58;14.9;;;13.3;;
15498;SDS011;7851;52.260;6.030;2022-10-28T02:52:58;20.3;;;14.1;;
15498;SDS011;7851;52.260;6.030;2022-10-28T02:53:58;15.8;;;14.1;;
15498;SDS011;7851;52.260;6.030;2022-10-28T02:54:59;19.9;;;14.1;;
15498;SDS011;7851;52.260;6.030;2022-10-28T02:55:58;17.2;;;13.6;;
15498;SDS011;7851;52.260;6.030;2022-10-28T02:56:58;16;;;13.6;;
15498;SDS011;7851;52.260;6.030;2022-10-28T02:57:57;18.8;;;14.5;;
15498;SDS011;7851;52.260;6.030;2022-10-28T02:58:57;19.6;;;14;;
15498;SDS011;7851;52.260;6.030;2022-10-28T02:59:58;16.7;;;14;;
15498;SDS011;7851;52.260;6.030;2022-10-28T03:00:57;20.7;;;13.9;;
15498;SDS011;7851;52.260;6.030;2022-10-28T03:01:57;17.3;;;13.9;;
15498;SDS011;7851;52.260;6.030;2022-10-28T03:02:57;18.2;;;13.8;;
15498;SDS011;7851;52.260;6.030;2022-10-28T03:03:57;19.8;;;14.2;;
15498;SDS011;7851;52.260;6.030;2022-10-28T03:04:57;16.6;;;13.7;;
15498;SDS011;7851;52.260;6.030;2022-10-28T03:05:57;18.7;;;14.4;;
15498;SDS011;7851;52.260;6.030;2022-10-28T03:06:57;17.7;;;13.2;;
15498;SDS011;7851;52.260;6.030;2022-10-28T03:07:57;17.9;;;14.6;;
15498;SDS011;7851;52.260;6.030;2022-10-28T03:08:57;17.2;;;14.2;;
15498;SDS011;7851;52.260;6.030;2022-10-28T03:09:57;18.8;;;14;;
15498;SDS011;7851;52.260;6.030;2022-10-28T03:10:57;17.2;;;14.2;;
15498;SDS011;7851;52.260;6.030;2022-10-28T03:11:57;17.6;;;14.2;;
15498;SDS011;7851;52.260;6.030;2022-10-28T03:12:57;19.1;;;14.3;;
15498;SDS011;7851;52.260;6.030;2022-10-28T03:13:57;21.1;;;14.5;;
15498;SDS011;7851;52.260;6.030;2022-10-28T03:14:57;18.7;;;13.6;;
15498;SDS011;7851;52.260;6.030;2022-10-28T03:15:57;18.5;;;13;;
15498;SDS011;7851;52.260;6.030;2022-10-28T03:16:57;20.4;;;14.5;;
15498;SDS011;7851;52.260;6.030;2022-10-28T03:17:57;16.4;;;13.6;;
15498;SDS011;7851;52.260;6.030;2022-10-28T03:18:57;15.9;;;14.1;;
15498;SDS011;7851;52.260;6.030;2022-10-28T03:19:57;17.1;;;14;;
15498;SDS011;7851;52.260;6.030;2022-10-28T03:20:57;15.8;;;13.3;;
15498;SDS011;7851;52.260;6.030;2022-10-28T03:21:57;18.2;;;15.1;;
15498;SDS011;7851;52.260;6.030;2022-10-28T03:22:57;15.9;;;13.8;;
15498;SDS011;7851;52.260;6.030;2022-10-28T03:23:57;20.7;;;15;;
15498;SDS011;7851;52.260;6.030;2022-10-28T03:24:57;18.8;;;14;;
15498;SDS011;7851;52.260;6.030;2022-10-28T03:25:57;16.3;;;13.3;;
15498;SDS011;7851;52.260;6.030;2022-10-28T03:26:57;18.6;;;13.9;;
15498;SDS011;7851;52.260;6.030;2022-10-28T03:27:57;19.2;;;13.2;;
15498;SDS011;7851;52.260;6.030;2022-10-28T03:28:57;18.7;;;13.2;;
15498;SDS011;7851;52.260;6.030;2022-10-28T03:29:57;29.7;;;13.4;;
15498;SDS011;7851;52.260;6.030;2022-10-28T03:30:57;14.5;;;13;;
15498;SDS011;7851;52.260;6.030;2022-10-28T03:31:57;17;;;13.9;;
15498;SDS011;7851;52.260;6.030;2022-10-28T03:32:57;16.1;;;12.8;;
15498;SDS011;7851;52.260;6.030;2022-10-28T03:33:57;17.4;;;13.3;;
15498;SDS011;7851;52.260;6.030;2022-10-28T03:34:57;16.6;;;12.6;;
15498;SDS011;7851;52.260;6.030;2022-10-28T03:35:57;15;;;13.5;;
15498;SDS011;7851;52.260;6.030;2022-10-28T03:36:57;17.4;;;14;;
15498;SDS011;7851;52.260;6.030;2022-10-28T03:37:57;20.7;;;13.8;;
15498;SDS011;7851;52.260;6.030;2022-10-28T03:38:57;15.2;;;13.2;;
15498;SDS011;7851;52.260;6.030;2022-10-28T03:39:57;17.5;;;14.2;;
15498;SDS011;7851;52.260;6.030;2022-10-28T03:40:57;18.1;;;14.4;;
15498;SDS011;7851;52.260;6.030;2022-10-28T03:41:57;16.1;;;13.8;;
15498;SDS011;7851;52.260;6.030;2022-10-28T03:42:57;17;;;12.6;;
15498;SDS011;7851;52.260;6.030;2022-10-28T03:43:57;17.8;;;13.5;;
15498;SDS011;7851;52.260;6.030;2022-10-28T03:44:57;23.4;;;13.1;;
15498;SDS011;7851;52.260;6.030;2022-10-28T03:45:57;18.4;;;13.3;;
15498;SDS011;7851;52.260;6.030;2022-10-28T03:46:57;17.9;;;13.2;;
15498;SDS011;7851;52.260;6.030;2022-10-28T03:47:57;17.6;;;13.4;;
15498;SDS011;7851;52.260;6.030;2022-10-28T03:48:57;14.5;;;12.9;;
15498;SDS011;7851;52.260;6.030;2022-10-28T03:49:57;19.6;;;13.6;;
15498;SDS011;7851;52.260;6.030;2022-10-28T03:50:57;17.7;;;13.6;;
15498;SDS011;7851;52.260;6.030;2022-10-28T03:51:57;19.5;;;13.3;;
15498;SDS011;7851;52.260;6.030;2022-10-28T03:52:57;16.8;;;13.3;;
15498;SDS011;7851;52.260;6.030;2022-10-28T03:53:57;19.4;;;13.6;;
15498;SDS011;7851;52.260;6.030;2022-10-28T03:54:57;16.7;;;13;;
15498;SDS011;7851;52.260;6.030;2022-10-28T03:55:58;14.4;;;12.9;;
15498;SDS011;7851;52.260;6.030;2022-10-28T03:56:57;16.2;;;13.6;;
15498;SDS011;7851;52.260;6.030;2022-10-28T03:57:59;15.5;;;12.8;;
15498;SDS011;7851;52.260;6.030;2022-10-28T03:58:57;16.4;;;12.8;;
15498;SDS011;7851;52.260;6.030;2022-10-28T03:59:57;16.8;;;13.3;;
15498;SDS011;7851;52.260;6.030;2022-10-28T04:00:57;15.5;;;12.7;;
15498;SDS011;7851;52.260;6.030;2022-10-28T04:01:57;16.4;;;13;;
15498;SDS011;7851;52.260;6.030;2022-10-28T04:02:57;19.1;;;13.2;;
15498;SDS011;7851;52.260;6.030;2022-10-28T04:03:57;14.5;;;12.1;;
15498;SDS011;7851;52.260;6.030;2022-10-28T04:04:57;15.7;;;12.5;;
15498;SDS011;7851;52.260;6.030;2022-10-28T04:05:57;18.1;;;12.1;;
15498;SDS011;7851;52.260;6.030;2022-10-28T04:06:58;19.1;;;12.4;;
15498;SDS011;7851;52.260;6.030;2022-10-28T04:07:57;15.9;;;12.2;;
15498;SDS011;7851;52.260;6.030;2022-10-28T04:08:57;15.5;;;12.1;;
15498;SDS011;7851;52.260;6.030;2022-10-28T04:09:57;17.5;;;11.8;;
15498;SDS011;7851;52.260;6.030;2022-10-28T04:10:57;16.5;;;12.2;;
15498;SDS011;7851;52.260;6.030;2022-10-28T04:11:57;15.7;;;12.4;;
15498;SDS011;7851;52.260;6.030;2022-10-28T04:12:58;18.6;;;13.4;;
15498;SDS011;7851;52.260;6.030;2022-10-28T04:13:57;15.9;;;12.9;;
15498;SDS011;7851;52.260;6.030;2022-10-28T04:14:57;17.3;;;12.2;;
15498;SDS011;7851;52.260;6.030;2022-10-28T04:15:57;15.7;;;12;;
15498;SDS011;7851;52.260;6.030;2022-10-28T04:16:57;16.9;;;12.2;;
15498;SDS011;7851;52.260;6.030;2022-10-28T04:17:57;17.2;;;11.9;;
15498;SDS011;7851;52.260;6.030;2022-10-28T04:18:57;18.9;;;11.6;;
15498;SDS011;7851;52.260;6.030;2022-10-28T04:19:57;16.8;;;11.4;;
15498;SDS011;7851;52.260;6.030;2022-10-28T04:20:57;13.8;;;11.9;;
15498;SDS011;7851;52.260;6.030;2022-10-28T04:21:57;16.8;;;11.8;;
15498;SDS011;7851;52.260;6.030;2022-10-28T04:22:57;13.2;;;11.8;;
15498;SDS011;7851;52.260;6.030;2022-10-28T04:23:57;17.4;;;10.8;;
15498;SDS011;7851;52.260;6.030;2022-10-28T04:24:57;13.6;;;10.1;;
15498;SDS011;7851;52.260;6.030;2022-10-28T04:25:57;14.7;;;11.3;;
15498;SDS011;7851;52.260;6.030;2022-10-28T04:26:57;17.2;;;10.8;;
15498;SDS011;7851;52.260;6.030;2022-10-28T04:27:57;22.1;;;11.5;;
15498;SDS011;7851;52.260;6.030;2022-10-28T04:28:57;16.5;;;11;;
15498;SDS011;7851;52.260;6.030;2022-10-28T04:29:57;16.7;;;11.5;;
15498;SDS011;7851;52.260;6.030;2022-10-28T04:30:57;12.5;;;10.5;;
15498;SDS011;7851;52.260;6.030;2022-10-28T04:31:57;13.4;;;11.1;;
15498;SDS011;7851;52.260;6.030;2022-10-28T04:32:57;15.2;;;10.7;;
15498;SDS011;7851;52.260;6.030;2022-10-28T04:33:57;15;;;10.7;;
15498;SDS011;7851;52.260;6.030;2022-10-28T04:34:57;16;;;11.7;;
15498;SDS011;7851;52.260;6.030;2022-10-28T04:35:57;12;;;10.3;;
15498;SDS011;7851;52.260;6.030;2022-10-28T04:36:57;13.3;;;10.7;;
15498;SDS011;7851;52.260;6.030;2022-10-28T04:37:57;13.9;;;10.5;;
15498;SDS011;7851;52.260;6.030;2022-10-28T04:38:57;12.3;;;10.9;;
15498;SDS011;7851;52.260;6.030;2022-10-28T04:39:57;12.2;;;10.6;;
15498;SDS011;7851;52.260;6.030;2022-10-28T04:40:57;15.1;;;11.4;;
15498;SDS011;7851;52.260;6.030;2022-10-28T04:41:57;12.8;;;10.9;;
15498;SDS011;7851;52.260;6.030;2022-10-28T04:42:57;24.9;;;11.2;;
15498;SDS011;7851;52.260;6.030;2022-10-28T04:43:57;15.8;;;10.5;;
15498;SDS011;7851;52.260;6.030;2022-10-28T04:44:57;16.8;;;10.7;;
15498;SDS011;7851;52.260;6.030;2022-10-28T04:45:57;12.4;;;11.1;;
15498;SDS011;7851;52.260;6.030;2022-10-28T04:46:57;13.6;;;10;;
15498;SDS011;7851;52.260;6.030;2022-10-28T04:47:57;16.9;;;10.4;;
15498;SDS011;7851;52.260;6.030;2022-10-28T04:48:57;19.2;;;10.9;;
15498;SDS011;7851;52.260;6.030;2022-10-28T04:49:57;15.4;;;9.9;;
15498;SDS011;7851;52.260;6.030;2022-10-28T04:50:57;11.3;;;9.9;;
15498;SDS011;7851;52.260;6.030;2022-10-28T04:51:57;12;;;9.9;;
15498;SDS011;7851;52.260;6.030;2022-10-28T04:52:57;11.7;;;9.4;;
15498;SDS011;7851;52.260;6.030;2022-10-28T04:53:57;14.4;;;10.5;;
15498;SDS011;7851;52.260;6.030;2022-10-28T04:54:57;16.1;;;9.7;;
15498;SDS011;7851;52.260;6.030;2022-10-28T04:55:57;14.6;;;9.4;;
15498;SDS011;7851;52.260;6.030;2022-10-28T04:56:57;11.6;;;9.5;;
15498;SDS011;7851;52.260;6.030;2022-10-28T04:57:58;11.4;;;9.7;;
15498;SDS011;7851;52.260;6.030;2022-10-28T04:58:57;20.6;;;10.4;;
15498;SDS011;7851;52.260;6.030;2022-10-28T04:59:57;12;;;9.5;;
15498;SDS011;7851;52.260;6.030;2022-10-28T05:00:57;16.9;;;9.9;;
15498;SDS011;7851;52.260;6.030;2022-10-28T05:01:57;12.4;;;9.2;;
15498;SDS011;7851;52.260;6.030;2022-10-28T05:02:59;14.6;;;9.3;;
15498;SDS011;7851;52.260;6.030;2022-10-28T05:03:58;12.9;;;9;;
15498;SDS011;7851;52.260;6.030;2022-10-28T05:04:57;14;;;8.2;;
15498;SDS011;7851;52.260;6.030;2022-10-28T05:05:57;14.1;;;10;;
15498;SDS011;7851;52.260;6.030;2022-10-28T05:06:57;15.1;;;8.9;;
15498;SDS011;7851;52.260;6.030;2022-10-28T05:07:57;13.3;;;9.1;;
15498;SDS011;7851;52.260;6.030;2022-10-28T05:08:57;10.5;;;8.8;;
15498;SDS011;7851;52.260;6.030;2022-10-28T05:09:57;15.8;;;9.2;;
15498;SDS011;7851;52.260;6.030;2022-10-28T05:10:57;15.2;;;9.6;;
15498;SDS011;7851;52.260;6.030;2022-10-28T05:11:57;16.2;;;9.4;;
15498;SDS011;7851;52.260;6.030;2022-10-28T05:12:57;13.9;;;9;;
15498;SDS011;7851;52.260;6.030;2022-10-28T05:13:57;16.7;;;9.5;;
15498;SDS011;7851;52.260;6.030;2022-10-28T05:14:57;9.7;;;8.7;;
15498;SDS011;7851;52.260;6.030;2022-10-28T05:15:57;11.3;;;8.9;;
15498;SDS011;7851;52.260;6.030;2022-10-28T05:16:57;9.2;;;8.3;;
15498;SDS011;7851;52.260;6.030;2022-10-28T05:17:57;14.4;;;9.7;;
15498;SDS011;7851;52.260;6.030;2022-10-28T05:18:57;12.4;;;8.8;;
15498;SDS011;7851;52.260;6.030;2022-10-28T05:19:57;16.5;;;9.6;;
15498;SDS011;7851;52.260;6.030;2022-10-28T05:20:57;14;;;9.3;;
15498;SDS011;7851;52.260;6.030;2022-10-28T05:21:57;9.9;;;8.7;;
15498;SDS011;7851;52.260;6.030;2022-10-28T05:22:57;12.9;;;9.2;;
15498;SDS011;7851;52.260;6.030;2022-10-28T05:23:57;12.2;;;8.6;;
15498;SDS011;7851;52.260;6.030;2022-10-28T05:24:57;13.8;;;9.2;;
15498;SDS011;7851;52.260;6.030;2022-10-28T05:25:57;12.5;;;8.6;;
15498;SDS011;7851;52.260;6.030;2022-10-28T05:26:57;11.5;;;8.2;;
15498;SDS011;7851;52.260;6.030;2022-10-28T05:27:57;12;;;9;;
15498;SDS011;7851;52.260;6.030;2022-10-28T05:28:57;11.2;;;8.3;;
15498;SDS011;7851;52.260;6.030;2022-10-28T05:29:57;14.6;;;8.6;;
15498;SDS011;7851;52.260;6.030;2022-10-28T05:30:57;10.5;;;8.4;;
15498;SDS011;7851;52.260;6.030;2022-10-28T05:31:57;12.8;;;8.5;;
15498;SDS011;7851;52.260;6.030;2022-10-28T05:32:58;10.6;;;8.5;;
15498;SDS011;7851;52.260;6.030;2022-10-28T05:33:57;18.4;;;8.3;;
15498;SDS011;7851;52.260;6.030;2022-10-28T05:34:57;14.7;;;9.1;;
15498;SDS011;7851;52.260;6.030;2022-10-28T05:35:57;12.1;;;8;;
15498;SDS011;7851;52.260;6.030;2022-10-28T05:36:57;15.6;;;8.3;;
15498;SDS011;7851;52.260;6.030;2022-10-28T05:37:57;10.9;;;8.1;;
15498;SDS011;7851;52.260;6.030;2022-10-28T05:38:57;10;;;8.5;;
15498;SDS011;7851;52.260;6.030;2022-10-28T05:39:57;11.5;;;8.7;;
15498;SDS011;7851;52.260;6.030;2022-10-28T05:40:57;11.4;;;8.5;;
15498;SDS011;7851;52.260;6.030;2022-10-28T05:41:57;13.9;;;8.8;;
15498;SDS011;7851;52.260;6.030;2022-10-28T05:42:57;16;;;8.9;;
15498;SDS011;7851;52.260;6.030;2022-10-28T05:43:57;10.4;;;8.1;;
15498;SDS011;7851;52.260;6.030;2022-10-28T05:44:57;14.8;;;8.6;;
15498;SDS011;7851;52.260;6.030;2022-10-28T05:45:57;13.1;;;9.2;;
15498;SDS011;7851;52.260;6.030;2022-10-28T05:46:57;14.8;;;8.5;;
15498;SDS011;7851;52.260;6.030;2022-10-28T05:47:57;11.6;;;8.6;;
15498;SDS011;7851;52.260;6.030;2022-10-28T05:48:57;11.1;;;8.4;;
15498;SDS011;7851;52.260;6.030;2022-10-28T05:49:57;14.7;;;9.1;;
15498;SDS011;7851;52.260;6.030;2022-10-28T05:50:57;17.3;;;8.7;;
15498;SDS011;7851;52.260;6.030;2022-10-28T05:51:57;10.4;;;8.2;;
15498;SDS011;7851;52.260;6.030;2022-10-28T05:52:57;12.5;;;8.2;;
15498;SDS011;7851;52.260;6.030;2022-10-28T05:53:57;10;;;8.1;;
15498;SDS011;7851;52.260;6.030;2022-10-28T05:54:57;12.8;;;8.9;;
15498;SDS011;7851;52.260;6.030;2022-10-28T05:55:57;17.2;;;8.5;;
15498;SDS011;7851;52.260;6.030;2022-10-28T05:56:57;10.6;;;7.9;;
15498;SDS011;7851;52.260;6.030;2022-10-28T05:57:57;11.4;;;8.1;;
15498;SDS011;7851;52.260;6.030;2022-10-28T05:58:57;12.4;;;8.5;;
15498;SDS011;7851;52.260;6.030;2022-10-28T05:59:57;16.7;;;8.5;;
15498;SDS011;7851;52.260;6.030;2022-10-28T06:00:57;10.8;;;8.2;;
15498;SDS011;7851;52.260;6.030;2022-10-28T06:01:57;11.8;;;7.9;;
15498;SDS011;7851;52.260;6.030;2022-10-28T06:03:01;15.2;;;8.1;;
15498;SDS011;7851;52.260;6.030;2022-10-28T06:03:57;14.7;;;7.9;;
15498;SDS011;7851;52.260;6.030;2022-10-28T06:04:57;9.8;;;8.2;;
15498;SDS011;7851;52.260;6.030;2022-10-28T06:05:57;12.4;;;7.6;;
15498;SDS011;7851;52.260;6.030;2022-10-28T06:06:57;9.5;;;8.1;;
15498;SDS011;7851;52.260;6.030;2022-10-28T06:07:57;10.4;;;7.7;;
15498;SDS011;7851;52.260;6.030;2022-10-28T06:08:57;12.9;;;8.3;;
15498;SDS011;7851;52.260;6.030;2022-10-28T06:09:57;12.7;;;8.1;;
15498;SDS011;7851;52.260;6.030;2022-10-28T06:10:57;12.4;;;8.2;;
15498;SDS011;7851;52.260;6.030;2022-10-28T06:11:57;10.3;;;7.8;;
15498;SDS011;7851;52.260;6.030;2022-10-28T06:12:57;13.6;;;7.8;;